臺北飛航情報區 - 海峽席

METAR RCTP 232030Z 16005KT 110V200 9999 FEW020 20/17 Q1020 NOSIG RMK A3013(W)=

站台狀態:Online
最後更新:2020-02-24 04:30:02